createdAt,value
2022-09-11T00:01:15.358Z,2.42
2022-09-11T00:04:11.166Z,3.78
2022-09-11T00:07:05.667Z,3.45
2022-09-11T00:10:00.245Z,3.17
2022-09-11T00:12:55.333Z,3.83
2022-09-11T00:15:52.317Z,2.10
2022-09-11T00:18:48.148Z,6.00
2022-09-11T00:21:42.842Z,4.28
2022-09-11T00:24:37.624Z,4.75
2022-09-11T00:27:32.242Z,4.88
2022-09-11T00:30:26.852Z,3.88
2022-09-11T00:33:21.473Z,4.20
2022-09-11T00:36:22.380Z,2.25
2022-09-11T00:39:17.167Z,5.72
2022-09-11T00:42:12.926Z,3.75
2022-09-11T00:45:10.616Z,6.07
2022-09-11T00:48:05.709Z,2.50
2022-09-11T00:51:05.150Z,5.13
2022-09-11T00:54:01.001Z,2.70
2022-09-11T00:56:56.272Z,3.70
2022-09-11T00:59:54.135Z,4.40
2022-09-11T01:02:51.287Z,5.85
2022-09-11T01:05:46.334Z,3.45
2022-09-11T01:08:41.551Z,4.47
2022-09-11T01:11:45.661Z,3.28
2022-09-11T01:14:56.165Z,4.95
2022-09-11T01:18:09.057Z,1.88
2022-09-11T01:21:03.760Z,3.88
2022-09-11T01:24:16.468Z,2.78
2022-09-11T01:27:45.335Z,2.30
2022-09-11T01:30:50.210Z,6.18
2022-09-11T01:33:59.005Z,2.58
2022-09-11T01:37:02.883Z,1.83
2022-09-11T01:40:07.002Z,3.17
2022-09-11T01:43:17.205Z,5.57
2022-09-11T01:46:14.642Z,2.60
2022-09-11T01:49:16.872Z,2.80
2022-09-11T01:52:17.593Z,2.90
2022-09-11T01:55:41.063Z,6.05
2022-09-11T01:58:37.791Z,3.13
2022-09-11T02:01:37.910Z,4.60
2022-09-11T02:04:45.661Z,5.20
2022-09-11T02:10:47.021Z,3.60
2022-09-11T02:13:58.140Z,2.20
2022-09-11T02:17:03.091Z,3.67
2022-09-11T02:20:01.026Z,2.42
2022-09-11T02:22:55.750Z,1.98
2022-09-11T02:25:50.690Z,2.97
2022-09-11T02:28:45.517Z,3.15
2022-09-11T02:31:40.568Z,3.85
2022-09-11T02:34:38.172Z,1.52
2022-09-11T02:38:03.167Z,3.17
2022-09-11T02:41:11.045Z,3.53
2022-09-11T02:44:31.747Z,4.00
2022-09-11T02:47:44.565Z,2.72
2022-09-11T02:50:44.842Z,2.88
2022-09-11T02:53:43.853Z,3.25
2022-09-11T02:56:49.585Z,2.72
2022-09-11T03:00:02.851Z,2.03
2022-09-11T03:02:57.769Z,3.33
2022-09-11T03:05:52.554Z,3.08
2022-09-11T03:08:47.124Z,1.65
2022-09-11T03:11:41.652Z,2.05
2022-09-11T03:14:37.176Z,3.75
2022-09-11T03:17:31.781Z,2.33
2022-09-11T03:20:26.425Z,1.17
2022-09-11T03:23:21.160Z,2.72
2022-09-11T03:26:16.530Z,1.80
2022-09-11T03:29:11.226Z,1.50
2022-09-11T03:32:07.362Z,2.60
2022-09-11T03:35:02.562Z,3.15
2022-09-11T03:37:58.836Z,3.78
2022-09-11T03:40:53.361Z,1.42
2022-09-11T03:43:47.902Z,2.65
2022-09-11T03:46:42.566Z,2.78
2022-09-11T03:49:37.150Z,1.90
2022-09-11T03:52:32.378Z,4.00
2022-09-11T03:55:26.870Z,3.78
2022-09-11T03:58:21.905Z,1.27
2022-09-11T04:01:20.508Z,1.80
2022-09-11T04:04:16.469Z,8.25
2022-09-11T04:07:11.076Z,1.77
2022-09-11T04:10:05.821Z,5.60
2022-09-11T04:13:00.449Z,2.58
2022-09-11T04:15:55.174Z,1.52
2022-09-11T04:18:50.771Z,4.72
2022-09-11T04:21:45.592Z,2.83
2022-09-11T04:24:40.134Z,3.22
2022-09-11T04:27:34.837Z,2.55
2022-09-11T04:30:29.421Z,2.38
2022-09-11T04:33:24.055Z,3.55
2022-09-11T04:36:20.892Z,3.83
2022-09-11T04:39:15.749Z,2.88
2022-09-11T04:42:11.708Z,1.40
2022-09-11T04:45:07.037Z,2.40
2022-09-11T04:48:02.777Z,2.15
2022-09-11T04:51:09.033Z,1.60
2022-09-11T04:54:04.504Z,2.15
2022-09-11T04:56:59.252Z,2.38
2022-09-11T04:59:55.401Z,1.77
2022-09-11T05:02:50.032Z,2.28
2022-09-11T05:05:44.655Z,3.13
2022-09-11T05:08:39.712Z,2.08
2022-09-11T05:11:35.018Z,2.35
2022-09-11T05:14:31.430Z,4.43
2022-09-11T05:17:25.997Z,2.07
2022-09-11T05:20:20.793Z,4.15
2022-09-11T05:23:15.294Z,2.67
2022-09-11T05:26:20.520Z,2.53
2022-09-11T05:29:17.071Z,2.10
2022-09-11T05:32:11.767Z,2.72
2022-09-11T05:35:08.105Z,3.53
2022-09-11T05:38:02.800Z,2.67
2022-09-11T05:40:57.574Z,3.03
2022-09-11T05:43:52.845Z,4.18
2022-09-11T05:46:47.440Z,2.30
2022-09-11T05:49:42.043Z,1.60
2022-09-11T05:52:36.600Z,3.08
2022-09-11T05:55:31.358Z,4.35
2022-09-11T05:58:25.934Z,2.03
2022-09-11T06:01:26.130Z,2.30
2022-09-11T06:04:20.857Z,2.35
2022-09-11T06:07:15.549Z,0.95
2022-09-11T06:10:10.948Z,2.38
2022-09-11T06:13:06.045Z,4.60
2022-09-11T06:16:00.678Z,1.40
2022-09-11T06:18:56.023Z,4.97
2022-09-11T06:21:51.525Z,2.75
2022-09-11T06:24:46.399Z,1.23
2022-09-11T06:27:40.942Z,1.98
2022-09-11T06:30:36.751Z,3.33
2022-09-11T06:33:40.019Z,1.08
2022-09-11T06:36:35.316Z,3.72
2022-09-11T06:39:29.846Z,1.60
2022-09-11T06:42:24.975Z,1.45
2022-09-11T06:45:19.538Z,4.40
2022-09-11T06:48:14.363Z,1.60
2022-09-11T06:51:12.635Z,3.15
2022-09-11T06:54:07.661Z,2.15
2022-09-11T06:57:02.479Z,4.07
2022-09-11T06:59:58.932Z,3.83
2022-09-11T07:02:57.711Z,2.93
2022-09-11T07:05:52.284Z,4.07
2022-09-11T07:08:53.301Z,2.95
2022-09-11T07:11:48.194Z,2.58
2022-09-11T07:14:42.833Z,2.10
2022-09-11T07:17:37.844Z,1.90
2022-09-11T07:20:32.642Z,1.77
2022-09-11T07:23:27.314Z,3.78
2022-09-11T07:26:22.946Z,3.33
2022-09-11T07:29:19.293Z,1.23
2022-09-11T07:32:14.314Z,3.23
2022-09-11T07:35:09.406Z,3.75
2022-09-11T07:38:04.079Z,3.38
2022-09-11T07:40:59.540Z,2.88
2022-09-11T07:44:01.541Z,3.33
2022-09-11T07:46:56.989Z,2.53
2022-09-11T07:49:51.830Z,2.78
2022-09-11T07:52:46.460Z,1.73
2022-09-11T07:55:40.954Z,2.42
2022-09-11T07:58:40.474Z,3.45
2022-09-11T08:01:35.123Z,2.10
2022-09-11T08:04:30.193Z,3.17
2022-09-11T08:07:24.761Z,3.83
2022-09-11T08:10:27.924Z,3.90
2022-09-11T08:13:23.748Z,3.20
2022-09-11T08:16:18.646Z,5.00
2022-09-11T08:19:21.089Z,3.72
2022-09-11T08:22:15.606Z,5.45
2022-09-11T08:25:10.398Z,2.72
2022-09-11T08:28:05.753Z,4.13
2022-09-11T08:31:00.743Z,3.17
2022-09-11T08:33:56.541Z,5.70
2022-09-11T08:36:53.244Z,4.72
2022-09-11T08:39:48.050Z,5.85
2022-09-11T08:42:48.318Z,5.90
2022-09-11T08:45:42.959Z,6.30
2022-09-11T08:48:50.051Z,2.47
2022-09-11T08:51:46.326Z,5.95
2022-09-11T08:54:43.461Z,3.47
2022-09-11T08:58:03.993Z,3.25
2022-09-11T09:01:10.520Z,3.25
2022-09-11T09:04:47.632Z,2.88
2022-09-11T09:07:57.122Z,2.15
2022-09-11T09:11:09.735Z,2.17
2022-09-11T09:14:21.750Z,2.85
2022-09-11T09:17:41.629Z,3.15
2022-09-11T09:20:41.609Z,6.28
2022-09-11T09:23:42.932Z,3.47
2022-09-11T09:26:42.929Z,3.75
2022-09-11T09:29:42.193Z,4.75
2022-09-11T09:32:47.473Z,2.75
2022-09-11T09:35:45.475Z,4.65
2022-09-11T09:38:40.156Z,4.38
2022-09-11T09:41:52.820Z,3.78
2022-09-11T09:44:59.481Z,4.15
2022-09-11T09:47:54.727Z,14.43
2022-09-11T09:50:50.414Z,48.33
2022-09-11T09:53:54.810Z,59.15
2022-09-11T09:57:00.647Z,43.78
2022-09-11T10:00:03.216Z,24.77
2022-09-11T10:02:59.213Z,15.98
2022-09-11T10:05:56.355Z,10.07
2022-09-11T10:09:01.416Z,7.97
2022-09-11T10:12:13.086Z,9.15
2022-09-11T10:15:08.473Z,8.18
2022-09-11T10:18:28.402Z,6.68
2022-09-11T10:21:36.558Z,9.93
2022-09-11T10:24:33.609Z,10.18
2022-09-11T10:27:29.235Z,12.48
2022-09-11T10:30:34.739Z,10.00
2022-09-11T10:33:32.092Z,13.40
2022-09-11T10:39:25.109Z,11.65
2022-09-11T10:42:27.265Z,13.07
2022-09-11T10:45:24.378Z,11.18
2022-09-11T10:48:23.616Z,11.75
2022-09-11T10:51:18.330Z,17.17
2022-09-11T10:54:23.768Z,11.32
2022-09-11T10:57:36.311Z,14.93
2022-09-11T11:00:37.206Z,17.17
2022-09-11T11:03:32.995Z,17.38
2022-09-11T11:06:42.497Z,18.15
2022-09-11T11:10:26.005Z,15.43
2022-09-11T11:13:51.383Z,13.32
2022-09-11T11:17:11.723Z,12.27
2022-09-11T11:20:29.301Z,16.00
2022-09-11T11:23:54.592Z,15.05
2022-09-11T11:27:12.645Z,17.00
2022-09-11T11:30:20.364Z,14.60
2022-09-11T11:36:47.308Z,14.32
2022-09-11T11:40:04.586Z,13.57
2022-09-11T11:43:22.490Z,17.00
2022-09-11T11:46:25.748Z,22.52
2022-09-11T11:49:32.705Z,22.80
2022-09-11T11:52:57.859Z,24.48
2022-09-11T11:55:58.482Z,19.10
2022-09-11T11:58:59.642Z,17.85
2022-09-11T12:02:20.072Z,21.35
2022-09-11T12:05:25.507Z,17.60
2022-09-11T12:08:20.481Z,19.58
2022-09-11T12:11:18.510Z,18.08
2022-09-11T12:14:28.925Z,15.55
2022-09-11T12:17:26.889Z,16.17
2022-09-11T12:20:42.113Z,17.80
2022-09-11T12:23:48.616Z,17.92
2022-09-11T12:26:43.343Z,18.23
2022-09-11T12:29:58.584Z,20.17
2022-09-11T12:33:03.626Z,22.10
2022-09-11T12:35:58.337Z,20.30
2022-09-11T12:38:59.514Z,18.10
2022-09-11T12:41:54.897Z,20.30
2022-09-11T12:44:49.370Z,19.90
2022-09-11T12:47:44.152Z,18.45
2022-09-11T12:50:39.877Z,18.38
2022-09-11T12:53:38.263Z,16.77
2022-09-11T12:56:38.525Z,13.95
2022-09-11T12:59:45.619Z,17.63
2022-09-11T13:02:48.123Z,15.23
2022-09-11T13:05:43.769Z,16.60
2022-09-11T13:08:54.733Z,14.18
2022-09-11T13:11:52.262Z,12.98
2022-09-11T13:14:50.920Z,16.38
2022-09-11T13:17:49.453Z,14.48
2022-09-11T13:20:44.018Z,11.52
2022-09-11T13:23:39.316Z,12.85
2022-09-11T13:26:34.191Z,9.85
2022-09-11T13:29:31.489Z,12.95
2022-09-11T13:35:31.142Z,10.80
2022-09-11T13:38:39.404Z,11.25
2022-09-11T13:41:38.761Z,10.70
2022-09-11T13:44:48.285Z,8.90
2022-09-11T13:47:43.508Z,12.43
2022-09-11T13:50:38.325Z,7.50
2022-09-11T13:53:34.476Z,6.82
2022-09-11T13:56:40.188Z,8.13
2022-09-11T13:59:41.160Z,9.93
2022-09-11T14:02:48.537Z,6.50
2022-09-11T14:05:55.208Z,8.88
2022-09-11T14:08:58.629Z,9.85
2022-09-11T14:11:54.069Z,9.90
2022-09-11T14:14:54.068Z,8.05
2022-09-11T14:17:48.635Z,11.13
2022-09-11T14:20:46.598Z,9.48
2022-09-11T14:24:00.522Z,7.47
2022-09-11T14:26:58.680Z,8.07
2022-09-11T14:29:57.801Z,6.78
2022-09-11T14:33:14.766Z,7.57
2022-09-11T14:36:21.277Z,10.55
2022-09-11T14:39:31.041Z,9.15
2022-09-11T14:42:31.292Z,5.90
2022-09-11T14:45:27.274Z,6.28
2022-09-11T14:48:22.210Z,7.47
2022-09-11T14:51:16.923Z,6.15
2022-09-11T14:54:18.485Z,6.88
2022-09-11T14:57:20.399Z,7.47
2022-09-11T15:00:20.654Z,7.13
2022-09-11T15:03:15.262Z,5.32
2022-09-11T15:06:16.804Z,7.88
2022-09-11T15:09:11.689Z,7.18
2022-09-11T15:12:07.568Z,8.20
2022-09-11T15:15:03.224Z,7.97
2022-09-11T15:17:58.317Z,5.90
2022-09-11T15:20:52.793Z,5.22
2022-09-11T15:23:48.679Z,7.50
2022-09-11T15:26:43.548Z,8.88
2022-09-11T15:29:40.869Z,5.80
2022-09-11T15:35:32.854Z,6.15
2022-09-11T15:38:28.630Z,5.25
2022-09-11T15:41:31.362Z,5.28
2022-09-11T15:44:29.320Z,5.25
2022-09-11T15:47:24.022Z,4.78
2022-09-11T15:50:22.642Z,5.70
2022-09-11T15:53:17.205Z,6.47
2022-09-11T15:56:17.366Z,6.95
2022-09-11T15:59:14.093Z,4.82
2022-09-11T16:02:10.496Z,4.35
2022-09-11T16:05:05.331Z,5.05
2022-09-11T16:08:00.414Z,5.07
2022-09-11T16:10:55.729Z,6.38
2022-09-11T16:13:54.924Z,3.85
2022-09-11T16:16:50.991Z,7.47
2022-09-11T16:19:45.619Z,4.75
2022-09-11T16:22:40.150Z,3.25
2022-09-11T16:25:39.878Z,3.65
2022-09-11T16:28:36.889Z,6.65
2022-09-11T16:31:31.460Z,4.18
2022-09-11T16:34:26.085Z,5.45
2022-09-11T16:37:20.957Z,4.63
2022-09-11T16:40:15.634Z,4.15
2022-09-11T16:43:10.565Z,2.92
2022-09-11T16:46:06.020Z,5.10
2022-09-11T16:49:01.943Z,6.72
2022-09-11T16:51:57.205Z,4.13
2022-09-11T16:54:51.758Z,6.03
2022-09-11T16:57:47.538Z,5.78
2022-09-11T17:00:45.582Z,5.60
2022-09-11T17:03:41.695Z,5.50
2022-09-11T17:06:36.412Z,3.40
2022-09-11T17:09:30.957Z,4.15
2022-09-11T17:12:25.889Z,4.78
2022-09-11T17:15:20.792Z,3.65
2022-09-11T17:18:15.535Z,5.57
2022-09-11T17:21:11.866Z,5.10
2022-09-11T17:24:08.153Z,5.90
2022-09-11T17:27:03.619Z,6.30
2022-09-11T17:29:58.952Z,3.97
2022-09-11T17:32:53.589Z,5.30
2022-09-11T17:35:48.539Z,4.60
2022-09-11T17:38:43.331Z,6.25
2022-09-11T17:41:38.329Z,4.88
2022-09-11T17:44:32.885Z,4.20
2022-09-11T17:47:31.697Z,4.32
2022-09-11T17:50:26.784Z,4.20
2022-09-11T17:53:23.485Z,6.28
2022-09-11T17:56:23.354Z,5.47
2022-09-11T17:59:18.490Z,5.43
2022-09-11T18:02:17.472Z,6.00
2022-09-11T18:05:12.389Z,6.78
2022-09-11T18:08:06.987Z,5.95
2022-09-11T18:11:03.204Z,4.95
2022-09-11T18:13:57.732Z,4.13
2022-09-11T18:16:52.366Z,4.32
2022-09-11T18:19:48.137Z,4.35
2022-09-11T18:22:43.747Z,6.30
2022-09-11T18:25:42.985Z,6.22
2022-09-11T18:28:39.780Z,4.63
2022-09-11T18:31:39.925Z,5.03
2022-09-11T18:34:34.618Z,7.00
2022-09-11T18:37:29.221Z,4.38
2022-09-11T18:40:24.216Z,4.65
2022-09-11T18:43:19.479Z,3.80
2022-09-11T18:46:14.367Z,4.38
2022-09-11T18:49:10.217Z,4.80
2022-09-11T18:52:04.926Z,4.00
2022-09-11T18:55:00.388Z,3.55
2022-09-11T18:57:54.931Z,3.65
2022-09-11T19:00:49.763Z,4.50
2022-09-11T19:03:45.442Z,5.63
2022-09-11T19:06:41.243Z,4.50
2022-09-11T19:09:36.499Z,4.07
2022-09-11T19:12:31.030Z,5.25
2022-09-11T19:15:26.388Z,3.90
2022-09-11T19:18:22.820Z,3.97
2022-09-11T19:21:23.966Z,4.68
2022-09-11T19:24:18.631Z,9.13
2022-09-11T19:27:13.192Z,3.60
2022-09-11T19:30:08.491Z,5.95
2022-09-11T19:33:03.177Z,4.03
2022-09-11T19:36:00.229Z,4.10
2022-09-11T19:39:00.877Z,4.32
2022-09-11T19:41:55.666Z,4.65
2022-09-11T19:44:54.258Z,4.65
2022-09-11T19:47:50.691Z,2.90
2022-09-11T19:50:48.228Z,3.38
2022-09-11T19:53:43.348Z,4.15
2022-09-11T19:56:39.777Z,3.85
2022-09-11T19:59:34.822Z,3.23
2022-09-11T20:02:29.314Z,4.70
2022-09-11T20:05:23.981Z,2.90
2022-09-11T20:08:18.551Z,4.80
2022-09-11T20:11:16.546Z,3.78
2022-09-11T20:14:12.224Z,4.20
2022-09-11T20:17:09.610Z,3.20
2022-09-11T20:20:04.273Z,3.88
2022-09-11T20:23:00.580Z,2.58
2022-09-11T20:25:55.259Z,4.50
2022-09-11T20:28:54.366Z,4.25
2022-09-11T20:31:52.252Z,3.35
2022-09-11T20:34:46.862Z,5.65
2022-09-11T20:37:41.418Z,4.20
2022-09-11T20:40:35.954Z,6.65
2022-09-11T20:43:30.478Z,8.70
2022-09-11T20:46:25.330Z,5.15
2022-09-11T20:49:19.869Z,4.38
2022-09-11T20:52:15.382Z,4.88
2022-09-11T20:55:10.317Z,4.53
2022-09-11T20:58:07.266Z,3.33
2022-09-11T21:01:02.162Z,3.97
2022-09-11T21:04:00.718Z,3.45
2022-09-11T21:06:55.921Z,4.43
2022-09-11T21:09:50.481Z,3.03
2022-09-11T21:12:44.954Z,3.75
2022-09-11T21:15:44.850Z,4.75
2022-09-11T21:18:40.897Z,4.13
2022-09-11T21:21:39.149Z,4.45
2022-09-11T21:24:33.669Z,5.07
2022-09-11T21:27:28.231Z,7.55
2022-09-11T21:30:22.769Z,5.50
2022-09-11T21:33:17.658Z,4.18
2022-09-11T21:36:12.362Z,2.75
2022-09-11T21:39:07.350Z,2.58
2022-09-11T21:42:01.853Z,4.15
2022-09-11T21:44:56.672Z,5.85
2022-09-11T21:47:52.314Z,4.60
2022-09-11T21:50:47.220Z,3.92
2022-09-11T21:53:44.006Z,6.28
2022-09-11T21:56:38.614Z,3.30
2022-09-11T21:59:33.400Z,5.70
2022-09-11T22:02:28.898Z,4.85
2022-09-11T22:05:24.461Z,4.15
2022-09-11T22:08:20.908Z,4.30
2022-09-11T22:11:16.678Z,5.47
2022-09-11T22:14:11.778Z,6.43
2022-09-11T22:17:06.337Z,4.72
2022-09-11T22:20:01.129Z,6.03
2022-09-11T22:22:57.699Z,3.03
2022-09-11T22:26:19.400Z,2.35
2022-09-11T22:29:14.303Z,5.05
2022-09-11T22:32:09.451Z,6.53
2022-09-11T22:35:03.963Z,2.20
2022-09-11T22:37:58.531Z,5.85
2022-09-11T22:40:56.740Z,5.38
2022-09-11T22:43:51.491Z,5.38
2022-09-11T22:46:48.748Z,4.53
2022-09-11T22:49:43.777Z,2.63
2022-09-11T22:52:38.942Z,3.88
2022-09-11T22:55:33.686Z,2.70
2022-09-11T22:58:29.734Z,3.72
2022-09-11T23:01:24.916Z,5.18
2022-09-11T23:04:19.567Z,3.83
2022-09-11T23:07:17.318Z,5.78
2022-09-11T23:10:12.407Z,4.45
2022-09-11T23:13:07.102Z,4.20
2022-09-11T23:16:02.194Z,4.57
2022-09-11T23:19:02.066Z,6.57
2022-09-11T23:21:56.761Z,6.07
2022-09-11T23:24:51.299Z,4.85
2022-09-11T23:27:47.414Z,2.95
2022-09-11T23:30:42.474Z,3.10
2022-09-11T23:33:37.061Z,3.55
2022-09-11T23:36:32.868Z,4.68
2022-09-11T23:39:27.525Z,3.30
2022-09-11T23:42:22.267Z,3.22
2022-09-11T23:45:17.898Z,4.15
2022-09-11T23:48:12.519Z,2.47
2022-09-11T23:51:08.138Z,4.15
2022-09-11T23:54:02.750Z,3.00
2022-09-11T23:56:57.570Z,3.35
2022-09-11T23:59:52.125Z,4.20
